sensor_id;sensor_type;location;lat;lon;timestamp;P1;durP1;ratioP1;P2;durP2;ratioP2
49578;SDS011;35483;50.828;3.228;2022-11-11T00:01:02;20.20;;;14.38;;
49578;SDS011;35483;50.828;3.228;2022-11-11T00:03:29;21.05;;;14.77;;
49578;SDS011;35483;50.828;3.228;2022-11-11T00:05:59;21.55;;;15.75;;
49578;SDS011;35483;50.828;3.228;2022-11-11T00:08:29;20.42;;;14.13;;
49578;SDS011;35483;50.828;3.228;2022-11-11T00:11:11;23.35;;;15.52;;
49578;SDS011;35483;50.828;3.228;2022-11-11T00:13:37;21.70;;;14.85;;
49578;SDS011;35483;50.828;3.228;2022-11-11T00:18:38;22.20;;;14.55;;
49578;SDS011;35483;50.828;3.228;2022-11-11T00:21:23;27.67;;;15.43;;
49578;SDS011;35483;50.828;3.228;2022-11-11T00:27:03;22.40;;;15.75;;
49578;SDS011;35483;50.828;3.228;2022-11-11T00:29:29;22.88;;;15.82;;
49578;SDS011;35483;50.828;3.228;2022-11-11T00:31:55;21.58;;;15.07;;
49578;SDS011;35483;50.828;3.228;2022-11-11T00:34:39;21.80;;;15.27;;
49578;SDS011;35483;50.828;3.228;2022-11-11T00:39:51;22.80;;;14.65;;
49578;SDS011;35483;50.828;3.228;2022-11-11T00:42:16;25.08;;;15.85;;
49578;SDS011;35483;50.828;3.228;2022-11-11T00:44:43;21.38;;;15.18;;
49578;SDS011;35483;50.828;3.228;2022-11-11T00:47:09;24.80;;;17.00;;
49578;SDS011;35483;50.828;3.228;2022-11-11T00:49:53;26.03;;;16.33;;
49578;SDS011;35483;50.828;3.228;2022-11-11T00:52:38;23.63;;;16.27;;
49578;SDS011;35483;50.828;3.228;2022-11-11T00:55:04;23.70;;;16.35;;
49578;SDS011;35483;50.828;3.228;2022-11-11T00:57:31;23.98;;;16.02;;
49578;SDS011;35483;50.828;3.228;2022-11-11T00:59:56;25.38;;;15.70;;
49578;SDS011;35483;50.828;3.228;2022-11-11T01:02:22;21.52;;;15.32;;
49578;SDS011;35483;50.828;3.228;2022-11-11T01:04:47;24.67;;;15.38;;
49578;SDS011;35483;50.828;3.228;2022-11-11T01:07:13;24.75;;;17.17;;
49578;SDS011;35483;50.828;3.228;2022-11-11T01:09:39;27.50;;;17.42;;
49578;SDS011;35483;50.828;3.228;2022-11-11T01:12:04;21.33;;;15.25;;
49578;SDS011;35483;50.828;3.228;2022-11-11T01:14:30;25.50;;;16.38;;
49578;SDS011;35483;50.828;3.228;2022-11-11T01:16:58;22.45;;;15.90;;
49578;SDS011;35483;50.828;3.228;2022-11-11T01:19:23;24.10;;;16.52;;
49578;SDS011;35483;50.828;3.228;2022-11-11T01:21:49;22.13;;;14.63;;
49578;SDS011;35483;50.828;3.228;2022-11-11T01:24:15;21.10;;;15.43;;
49578;SDS011;35483;50.828;3.228;2022-11-11T01:26:40;23.95;;;15.57;;
49578;SDS011;35483;50.828;3.228;2022-11-11T01:29:06;20.48;;;14.75;;
49578;SDS011;35483;50.828;3.228;2022-11-11T01:31:32;18.55;;;14.77;;
49578;SDS011;35483;50.828;3.228;2022-11-11T01:33:57;26.80;;;15.52;;
49578;SDS011;35483;50.828;3.228;2022-11-11T01:36:24;20.73;;;14.55;;
49578;SDS011;35483;50.828;3.228;2022-11-11T01:38:56;22.30;;;15.52;;
49578;SDS011;35483;50.828;3.228;2022-11-11T01:41:24;23.30;;;15.75;;
49578;SDS011;35483;50.828;3.228;2022-11-11T01:44:18;21.48;;;15.18;;
49578;SDS011;35483;50.828;3.228;2022-11-11T01:47:04;20.83;;;15.85;;
49578;SDS011;35483;50.828;3.228;2022-11-11T01:49:41;20.15;;;15.43;;
49578;SDS011;35483;50.828;3.228;2022-11-11T01:52:23;24.98;;;16.60;;
49578;SDS011;35483;50.828;3.228;2022-11-11T01:55:05;23.75;;;15.73;;
49578;SDS011;35483;50.828;3.228;2022-11-11T01:57:39;23.00;;;16.60;;
49578;SDS011;35483;50.828;3.228;2022-11-11T02:00:11;25.77;;;17.75;;
49578;SDS011;35483;50.828;3.228;2022-11-11T02:02:42;24.50;;;16.67;;
49578;SDS011;35483;50.828;3.228;2022-11-11T02:05:11;24.30;;;16.40;;
49578;SDS011;35483;50.828;3.228;2022-11-11T02:07:57;24.73;;;16.48;;
49578;SDS011;35483;50.828;3.228;2022-11-11T02:10:25;23.23;;;14.88;;
49578;SDS011;35483;50.828;3.228;2022-11-11T02:12:54;19.85;;;15.20;;
49578;SDS011;35483;50.828;3.228;2022-11-11T02:15:39;25.23;;;16.80;;
49578;SDS011;35483;50.828;3.228;2022-11-11T02:18:04;24.00;;;16.40;;
49578;SDS011;35483;50.828;3.228;2022-11-11T02:20:32;22.42;;;15.38;;
49578;SDS011;35483;50.828;3.228;2022-11-11T02:23:24;20.63;;;15.45;;
49578;SDS011;35483;50.828;3.228;2022-11-11T02:25:52;24.40;;;15.65;;
49578;SDS011;35483;50.828;3.228;2022-11-11T02:28:20;19.13;;;14.95;;
49578;SDS011;35483;50.828;3.228;2022-11-11T02:30:47;21.02;;;15.45;;
49578;SDS011;35483;50.828;3.228;2022-11-11T02:33:13;23.63;;;15.40;;
49578;SDS011;35483;50.828;3.228;2022-11-11T02:35:43;26.90;;;16.40;;
49578;SDS011;35483;50.828;3.228;2022-11-11T02:38:12;24.23;;;16.45;;
49578;SDS011;35483;50.828;3.228;2022-11-11T02:40:39;25.38;;;16.15;;
49578;SDS011;35483;50.828;3.228;2022-11-11T02:43:26;25.20;;;16.85;;
49578;SDS011;35483;50.828;3.228;2022-11-11T02:45:52;25.73;;;16.63;;
49578;SDS011;35483;50.828;3.228;2022-11-11T02:48:18;23.83;;;16.02;;
49578;SDS011;35483;50.828;3.228;2022-11-11T02:50:44;27.25;;;17.65;;
49578;SDS011;35483;50.828;3.228;2022-11-11T02:53:10;24.48;;;16.25;;
49578;SDS011;35483;50.828;3.228;2022-11-11T02:55:36;22.92;;;16.00;;
49578;SDS011;35483;50.828;3.228;2022-11-11T02:58:02;24.73;;;15.30;;
49578;SDS011;35483;50.828;3.228;2022-11-11T03:00:28;22.98;;;15.80;;
49578;SDS011;35483;50.828;3.228;2022-11-11T03:02:54;21.05;;;16.25;;
49578;SDS011;35483;50.828;3.228;2022-11-11T03:05:20;22.85;;;14.85;;
49578;SDS011;35483;50.828;3.228;2022-11-11T03:07:46;25.10;;;16.77;;
49578;SDS011;35483;50.828;3.228;2022-11-11T03:10:11;26.27;;;16.98;;
49578;SDS011;35483;50.828;3.228;2022-11-11T03:12:37;24.70;;;16.38;;
49578;SDS011;35483;50.828;3.228;2022-11-11T03:15:03;26.92;;;17.05;;
49578;SDS011;35483;50.828;3.228;2022-11-11T03:17:29;27.90;;;16.55;;
49578;SDS011;35483;50.828;3.228;2022-11-11T03:20:22;24.45;;;16.70;;
49578;SDS011;35483;50.828;3.228;2022-11-11T03:23:10;22.35;;;16.40;;
49578;SDS011;35483;50.828;3.228;2022-11-11T03:25:38;22.25;;;15.77;;
49578;SDS011;35483;50.828;3.228;2022-11-11T03:28:09;24.33;;;15.98;;
49578;SDS011;35483;50.828;3.228;2022-11-11T03:30:40;23.60;;;16.40;;
49578;SDS011;35483;50.828;3.228;2022-11-11T03:33:07;23.38;;;15.60;;
49578;SDS011;35483;50.828;3.228;2022-11-11T03:35:33;23.83;;;14.85;;
49578;SDS011;35483;50.828;3.228;2022-11-11T03:37:59;23.10;;;16.17;;
49578;SDS011;35483;50.828;3.228;2022-11-11T03:40:48;25.73;;;16.67;;
49578;SDS011;35483;50.828;3.228;2022-11-11T03:43:18;21.98;;;15.63;;
49578;SDS011;35483;50.828;3.228;2022-11-11T03:45:45;26.30;;;17.08;;
49578;SDS011;35483;50.828;3.228;2022-11-11T03:48:11;25.38;;;16.05;;
49578;SDS011;35483;50.828;3.228;2022-11-11T03:50:37;24.90;;;16.17;;
49578;SDS011;35483;50.828;3.228;2022-11-11T03:53:03;24.35;;;16.70;;
49578;SDS011;35483;50.828;3.228;2022-11-11T03:55:30;21.65;;;15.48;;
49578;SDS011;35483;50.828;3.228;2022-11-11T03:57:57;23.05;;;15.45;;
49578;SDS011;35483;50.828;3.228;2022-11-11T04:00:23;21.40;;;16.17;;
49578;SDS011;35483;50.828;3.228;2022-11-11T04:03:00;24.55;;;16.05;;
49578;SDS011;35483;50.828;3.228;2022-11-11T04:05:45;22.38;;;15.10;;
49578;SDS011;35483;50.828;3.228;2022-11-11T04:08:29;21.13;;;14.35;;
49578;SDS011;35483;50.828;3.228;2022-11-11T04:11:14;20.88;;;15.32;;
49578;SDS011;35483;50.828;3.228;2022-11-11T04:13:52;23.75;;;15.15;;
49578;SDS011;35483;50.828;3.228;2022-11-11T04:16:41;23.13;;;15.88;;
49578;SDS011;35483;50.828;3.228;2022-11-11T04:19:07;20.80;;;15.07;;
49578;SDS011;35483;50.828;3.228;2022-11-11T04:21:51;21.45;;;15.02;;
49578;SDS011;35483;50.828;3.228;2022-11-11T04:24:18;20.27;;;14.55;;
49578;SDS011;35483;50.828;3.228;2022-11-11T04:27:07;19.77;;;14.90;;
49578;SDS011;35483;50.828;3.228;2022-11-11T04:29:34;24.75;;;15.27;;
49578;SDS011;35483;50.828;3.228;2022-11-11T04:37:13;21.17;;;15.93;;
49578;SDS011;35483;50.828;3.228;2022-11-11T04:39:40;21.05;;;14.73;;
49578;SDS011;35483;50.828;3.228;2022-11-11T04:42:24;21.20;;;14.40;;
49578;SDS011;35483;50.828;3.228;2022-11-11T04:44:50;21.00;;;14.80;;
49578;SDS011;35483;50.828;3.228;2022-11-11T04:47:35;18.75;;;14.25;;
49578;SDS011;35483;50.828;3.228;2022-11-11T04:50:01;22.25;;;14.70;;
49578;SDS011;35483;50.828;3.228;2022-11-11T04:52:27;17.58;;;14.15;;
49578;SDS011;35483;50.828;3.228;2022-11-11T04:54:57;21.73;;;14.77;;
49578;SDS011;35483;50.828;3.228;2022-11-11T04:57:43;18.88;;;13.10;;
49578;SDS011;35483;50.828;3.228;2022-11-11T05:00:11;20.38;;;14.57;;
49578;SDS011;35483;50.828;3.228;2022-11-11T05:02:39;20.52;;;14.30;;
49578;SDS011;35483;50.828;3.228;2022-11-11T05:05:23;19.98;;;13.27;;
49578;SDS011;35483;50.828;3.228;2022-11-11T05:07:50;18.05;;;13.68;;
49578;SDS011;35483;50.828;3.228;2022-11-11T05:10:34;21.48;;;14.25;;
49578;SDS011;35483;50.828;3.228;2022-11-11T05:13:02;18.55;;;13.88;;
49578;SDS011;35483;50.828;3.228;2022-11-11T05:15:46;19.88;;;14.63;;
49578;SDS011;35483;50.828;3.228;2022-11-11T05:18:31;19.92;;;13.45;;
49578;SDS011;35483;50.828;3.228;2022-11-11T05:21:15;19.45;;;13.95;;
49578;SDS011;35483;50.828;3.228;2022-11-11T05:23:49;19.98;;;14.70;;
49578;SDS011;35483;50.828;3.228;2022-11-11T05:26:34;20.20;;;13.88;;
49578;SDS011;35483;50.828;3.228;2022-11-11T05:29:00;20.48;;;14.05;;
49578;SDS011;35483;50.828;3.228;2022-11-11T05:31:27;22.27;;;15.48;;
49578;SDS011;35483;50.828;3.228;2022-11-11T05:33:53;19.25;;;13.80;;
49578;SDS011;35483;50.828;3.228;2022-11-11T05:36:19;20.83;;;14.55;;
49578;SDS011;35483;50.828;3.228;2022-11-11T05:38:45;21.02;;;13.85;;
49578;SDS011;35483;50.828;3.228;2022-11-11T05:41:11;18.45;;;13.88;;
49578;SDS011;35483;50.828;3.228;2022-11-11T05:43:36;21.08;;;14.48;;
49578;SDS011;35483;50.828;3.228;2022-11-11T05:46:02;19.10;;;14.57;;
49578;SDS011;35483;50.828;3.228;2022-11-11T05:48:29;19.17;;;15.07;;
49578;SDS011;35483;50.828;3.228;2022-11-11T05:50:58;20.50;;;14.73;;
49578;SDS011;35483;50.828;3.228;2022-11-11T05:53:25;20.48;;;14.68;;
49578;SDS011;35483;50.828;3.228;2022-11-11T05:55:52;21.52;;;14.98;;
49578;SDS011;35483;50.828;3.228;2022-11-11T05:58:18;19.33;;;14.43;;
49578;SDS011;35483;50.828;3.228;2022-11-11T06:00:45;19.85;;;14.73;;
49578;SDS011;35483;50.828;3.228;2022-11-11T06:03:11;22.02;;;14.02;;
49578;SDS011;35483;50.828;3.228;2022-11-11T06:05:37;19.80;;;13.77;;
49578;SDS011;35483;50.828;3.228;2022-11-11T06:08:03;21.30;;;15.15;;
49578;SDS011;35483;50.828;3.228;2022-11-11T06:10:29;21.15;;;14.55;;
49578;SDS011;35483;50.828;3.228;2022-11-11T06:12:55;20.35;;;14.60;;
49578;SDS011;35483;50.828;3.228;2022-11-11T06:15:34;20.70;;;14.70;;
49578;SDS011;35483;50.828;3.228;2022-11-11T06:18:01;18.40;;;13.45;;
49578;SDS011;35483;50.828;3.228;2022-11-11T06:20:28;18.90;;;14.07;;
49578;SDS011;35483;50.828;3.228;2022-11-11T06:22:54;20.02;;;14.55;;
49578;SDS011;35483;50.828;3.228;2022-11-11T06:25:20;18.73;;;14.05;;
49578;SDS011;35483;50.828;3.228;2022-11-11T06:28:05;22.55;;;14.65;;
49578;SDS011;35483;50.828;3.228;2022-11-11T06:30:31;20.45;;;13.85;;
49578;SDS011;35483;50.828;3.228;2022-11-11T06:32:56;21.30;;;14.65;;
49578;SDS011;35483;50.828;3.228;2022-11-11T06:35:22;18.08;;;13.10;;
49578;SDS011;35483;50.828;3.228;2022-11-11T06:37:48;21.58;;;13.48;;
49578;SDS011;35483;50.828;3.228;2022-11-11T06:40:13;19.00;;;13.70;;
49578;SDS011;35483;50.828;3.228;2022-11-11T06:42:39;17.65;;;12.88;;
49578;SDS011;35483;50.828;3.228;2022-11-11T06:45:05;18.63;;;13.93;;
49578;SDS011;35483;50.828;3.228;2022-11-11T06:47:31;17.27;;;12.77;;
49578;SDS011;35483;50.828;3.228;2022-11-11T06:49:57;19.52;;;13.23;;
49578;SDS011;35483;50.828;3.228;2022-11-11T06:52:23;20.60;;;13.85;;
49578;SDS011;35483;50.828;3.228;2022-11-11T06:54:49;18.50;;;13.38;;
49578;SDS011;35483;50.828;3.228;2022-11-11T06:57:15;17.20;;;13.05;;
49578;SDS011;35483;50.828;3.228;2022-11-11T06:59:40;17.30;;;13.45;;
49578;SDS011;35483;50.828;3.228;2022-11-11T07:02:08;19.65;;;13.70;;
49578;SDS011;35483;50.828;3.228;2022-11-11T07:04:37;17.75;;;13.25;;
49578;SDS011;35483;50.828;3.228;2022-11-11T07:07:03;18.35;;;12.93;;
49578;SDS011;35483;50.828;3.228;2022-11-11T07:09:29;17.13;;;13.35;;
49578;SDS011;35483;50.828;3.228;2022-11-11T07:11:54;17.17;;;12.48;;
49578;SDS011;35483;50.828;3.228;2022-11-11T07:14:20;16.70;;;13.18;;
49578;SDS011;35483;50.828;3.228;2022-11-11T07:16:46;19.63;;;13.63;;
49578;SDS011;35483;50.828;3.228;2022-11-11T07:19:12;17.70;;;13.00;;
49578;SDS011;35483;50.828;3.228;2022-11-11T07:21:38;16.45;;;11.90;;
49578;SDS011;35483;50.828;3.228;2022-11-11T07:24:03;17.42;;;12.00;;
49578;SDS011;35483;50.828;3.228;2022-11-11T07:26:29;15.82;;;12.35;;
49578;SDS011;35483;50.828;3.228;2022-11-11T07:28:55;16.23;;;11.80;;
49578;SDS011;35483;50.828;3.228;2022-11-11T07:31:20;16.17;;;11.63;;
49578;SDS011;35483;50.828;3.228;2022-11-11T07:33:46;17.23;;;11.13;;
49578;SDS011;35483;50.828;3.228;2022-11-11T07:36:12;13.82;;;10.82;;
49578;SDS011;35483;50.828;3.228;2022-11-11T07:38:37;12.98;;;10.55;;
49578;SDS011;35483;50.828;3.228;2022-11-11T07:41:03;13.63;;;10.35;;
49578;SDS011;35483;50.828;3.228;2022-11-11T07:43:29;13.63;;;10.63;;
49578;SDS011;35483;50.828;3.228;2022-11-11T07:45:55;18.27;;;12.07;;
49578;SDS011;35483;50.828;3.228;2022-11-11T07:48:20;12.23;;;10.35;;
49578;SDS011;35483;50.828;3.228;2022-11-11T07:50:46;14.35;;;10.73;;
49578;SDS011;35483;50.828;3.228;2022-11-11T07:53:12;14.63;;;11.48;;
49578;SDS011;35483;50.828;3.228;2022-11-11T07:55:37;15.45;;;11.70;;
49578;SDS011;35483;50.828;3.228;2022-11-11T07:58:03;14.13;;;10.35;;
49578;SDS011;35483;50.828;3.228;2022-11-11T08:00:30;14.65;;;11.02;;
49578;SDS011;35483;50.828;3.228;2022-11-11T08:02:56;15.15;;;11.13;;
49578;SDS011;35483;50.828;3.228;2022-11-11T08:05:23;14.70;;;10.93;;
49578;SDS011;35483;50.828;3.228;2022-11-11T08:07:49;14.63;;;10.85;;
49578;SDS011;35483;50.828;3.228;2022-11-11T08:10:14;16.52;;;11.00;;
49578;SDS011;35483;50.828;3.228;2022-11-11T08:12:40;14.25;;;12.10;;
49578;SDS011;35483;50.828;3.228;2022-11-11T08:15:24;13.25;;;10.27;;
49578;SDS011;35483;50.828;3.228;2022-11-11T08:17:50;15.10;;;10.80;;
49578;SDS011;35483;50.828;3.228;2022-11-11T08:20:16;12.70;;;10.60;;
49578;SDS011;35483;50.828;3.228;2022-11-11T08:22:42;12.25;;;8.73;;
49578;SDS011;35483;50.828;3.228;2022-11-11T08:25:09;10.82;;;8.45;;
49578;SDS011;35483;50.828;3.228;2022-11-11T08:27:38;13.05;;;9.00;;
49578;SDS011;35483;50.828;3.228;2022-11-11T08:30:04;9.52;;;8.40;;
49578;SDS011;35483;50.828;3.228;2022-11-11T08:32:32;12.35;;;9.18;;
49578;SDS011;35483;50.828;3.228;2022-11-11T08:34:58;9.82;;;7.38;;
49578;SDS011;35483;50.828;3.228;2022-11-11T08:37:24;10.40;;;7.22;;
49578;SDS011;35483;50.828;3.228;2022-11-11T08:39:49;7.90;;;7.03;;
49578;SDS011;35483;50.828;3.228;2022-11-11T08:42:16;8.68;;;7.22;;
49578;SDS011;35483;50.828;3.228;2022-11-11T08:44:42;10.95;;;7.03;;
49578;SDS011;35483;50.828;3.228;2022-11-11T08:47:08;11.75;;;6.90;;
49578;SDS011;35483;50.828;3.228;2022-11-11T08:49:34;8.45;;;7.10;;
49578;SDS011;35483;50.828;3.228;2022-11-11T08:52:00;12.20;;;8.15;;
49578;SDS011;35483;50.828;3.228;2022-11-11T08:54:26;9.85;;;8.82;;
49578;SDS011;35483;50.828;3.228;2022-11-11T08:56:51;12.48;;;9.23;;
49578;SDS011;35483;50.828;3.228;2022-11-11T08:59:17;11.93;;;8.70;;
49578;SDS011;35483;50.828;3.228;2022-11-11T09:01:42;13.93;;;9.15;;
49578;SDS011;35483;50.828;3.228;2022-11-11T09:04:08;12.80;;;8.82;;
49578;SDS011;35483;50.828;3.228;2022-11-11T09:06:34;16.48;;;12.75;;
49578;SDS011;35483;50.828;3.228;2022-11-11T09:08:59;13.57;;;9.77;;
49578;SDS011;35483;50.828;3.228;2022-11-11T09:11:25;12.95;;;9.57;;
49578;SDS011;35483;50.828;3.228;2022-11-11T09:13:51;11.63;;;7.88;;
49578;SDS011;35483;50.828;3.228;2022-11-11T09:16:17;13.35;;;7.57;;
49578;SDS011;35483;50.828;3.228;2022-11-11T09:18:43;9.93;;;8.30;;
49578;SDS011;35483;50.828;3.228;2022-11-11T09:21:09;11.20;;;7.88;;
49578;SDS011;35483;50.828;3.228;2022-11-11T09:23:35;13.55;;;9.60;;
49578;SDS011;35483;50.828;3.228;2022-11-11T09:26:01;14.57;;;12.02;;
49578;SDS011;35483;50.828;3.228;2022-11-11T09:28:28;14.43;;;10.65;;
49578;SDS011;35483;50.828;3.228;2022-11-11T09:31:01;10.70;;;9.60;;
49578;SDS011;35483;50.828;3.228;2022-11-11T09:33:27;11.07;;;8.95;;
49578;SDS011;35483;50.828;3.228;2022-11-11T09:35:53;12.55;;;9.68;;
49578;SDS011;35483;50.828;3.228;2022-11-11T09:38:18;10.77;;;8.70;;
49578;SDS011;35483;50.828;3.228;2022-11-11T09:40:53;10.55;;;8.38;;
49578;SDS011;35483;50.828;3.228;2022-11-11T09:43:53;11.70;;;9.35;;
49578;SDS011;35483;50.828;3.228;2022-11-11T09:49:19;10.10;;;8.80;;
49578;SDS011;35483;50.828;3.228;2022-11-11T09:54:42;13.23;;;7.75;;
49578;SDS011;35483;50.828;3.228;2022-11-11T10:00:02;9.95;;;7.47;;
49578;SDS011;35483;50.828;3.228;2022-11-11T10:02:40;8.98;;;7.38;;
49578;SDS011;35483;50.828;3.228;2022-11-11T10:05:12;12.40;;;9.27;;
49578;SDS011;35483;50.828;3.228;2022-11-11T10:10:26;10.32;;;8.00;;
49578;SDS011;35483;50.828;3.228;2022-11-11T10:13:06;12.38;;;9.10;;
49578;SDS011;35483;50.828;3.228;2022-11-11T10:21:11;9.00;;;7.80;;
49578;SDS011;35483;50.828;3.228;2022-11-11T10:23:40;9.40;;;7.43;;
49578;SDS011;35483;50.828;3.228;2022-11-11T10:26:13;9.90;;;8.55;;
49578;SDS011;35483;50.828;3.228;2022-11-11T10:28:41;13.05;;;9.23;;
49578;SDS011;35483;50.828;3.228;2022-11-11T10:31:13;8.18;;;6.90;;
49578;SDS011;35483;50.828;3.228;2022-11-11T10:36:20;9.82;;;7.50;;
49578;SDS011;35483;50.828;3.228;2022-11-11T10:38:50;12.25;;;7.82;;
49578;SDS011;35483;50.828;3.228;2022-11-11T10:41:30;8.77;;;7.68;;
49578;SDS011;35483;50.828;3.228;2022-11-11T10:44:17;11.27;;;8.13;;
49578;SDS011;35483;50.828;3.228;2022-11-11T10:46:49;10.57;;;9.05;;
49578;SDS011;35483;50.828;3.228;2022-11-11T10:49:23;17.30;;;10.98;;
49578;SDS011;35483;50.828;3.228;2022-11-11T10:52:01;8.35;;;7.53;;
49578;SDS011;35483;50.828;3.228;2022-11-11T10:57:48;9.23;;;7.55;;
49578;SDS011;35483;50.828;3.228;2022-11-11T11:00:21;7.18;;;6.03;;
49578;SDS011;35483;50.828;3.228;2022-11-11T11:02:53;9.27;;;6.68;;
49578;SDS011;35483;50.828;3.228;2022-11-11T11:05:41;10.35;;;7.32;;
49578;SDS011;35483;50.828;3.228;2022-11-11T11:08:11;7.25;;;6.53;;
49578;SDS011;35483;50.828;3.228;2022-11-11T11:10:46;11.52;;;8.90;;
49578;SDS011;35483;50.828;3.228;2022-11-11T11:13:44;11.25;;;6.40;;
49578;SDS011;35483;50.828;3.228;2022-11-11T11:16:12;7.90;;;5.40;;
49578;SDS011;35483;50.828;3.228;2022-11-11T11:18:42;11.15;;;7.53;;
49578;SDS011;35483;50.828;3.228;2022-11-11T11:21:08;8.70;;;6.10;;
49578;SDS011;35483;50.828;3.228;2022-11-11T11:26:01;5.93;;;4.90;;
49578;SDS011;35483;50.828;3.228;2022-11-11T11:28:28;9.05;;;6.25;;
49578;SDS011;35483;50.828;3.228;2022-11-11T11:30:58;10.45;;;7.43;;
49578;SDS011;35483;50.828;3.228;2022-11-11T11:33:48;8.55;;;5.50;;
49578;SDS011;35483;50.828;3.228;2022-11-11T11:36:20;7.38;;;6.20;;
49578;SDS011;35483;50.828;3.228;2022-11-11T11:38:47;8.38;;;6.75;;
49578;SDS011;35483;50.828;3.228;2022-11-11T11:41:17;9.35;;;7.70;;
49578;SDS011;35483;50.828;3.228;2022-11-11T11:44:00;8.60;;;6.40;;
49578;SDS011;35483;50.828;3.228;2022-11-11T11:46:32;10.90;;;7.30;;
49578;SDS011;35483;50.828;3.228;2022-11-11T11:52:02;11.30;;;8.13;;
49578;SDS011;35483;50.828;3.228;2022-11-11T11:57:14;8.60;;;5.45;;
49578;SDS011;35483;50.828;3.228;2022-11-11T11:59:57;7.95;;;6.10;;
49578;SDS011;35483;50.828;3.228;2022-11-11T12:02:51;9.50;;;6.40;;
49578;SDS011;35483;50.828;3.228;2022-11-11T12:21:58;7.63;;;6.55;;
49578;SDS011;35483;50.828;3.228;2022-11-11T12:29:47;8.60;;;6.80;;
49578;SDS011;35483;50.828;3.228;2022-11-11T12:37:54;8.63;;;7.28;;
49578;SDS011;35483;50.828;3.228;2022-11-11T12:43:21;7.32;;;6.38;;
49578;SDS011;35483;50.828;3.228;2022-11-11T12:45:56;8.38;;;7.15;;
49578;SDS011;35483;50.828;3.228;2022-11-11T12:48:47;7.00;;;6.30;;
49578;SDS011;35483;50.828;3.228;2022-11-11T12:51:26;6.70;;;5.55;;
49578;SDS011;35483;50.828;3.228;2022-11-11T12:56:57;7.32;;;5.00;;
49578;SDS011;35483;50.828;3.228;2022-11-11T13:02:41;6.22;;;5.50;;
49578;SDS011;35483;50.828;3.228;2022-11-11T13:05:33;7.20;;;5.60;;
49578;SDS011;35483;50.828;3.228;2022-11-11T13:16:20;7.82;;;6.43;;
49578;SDS011;35483;50.828;3.228;2022-11-11T13:19:02;7.97;;;6.78;;
49578;SDS011;35483;50.828;3.228;2022-11-11T13:21:51;8.80;;;6.80;;
49578;SDS011;35483;50.828;3.228;2022-11-11T13:24:18;8.20;;;7.40;;
49578;SDS011;35483;50.828;3.228;2022-11-11T13:29:39;8.85;;;7.50;;
49578;SDS011;35483;50.828;3.228;2022-11-11T13:32:15;8.65;;;7.78;;
49578;SDS011;35483;50.828;3.228;2022-11-11T13:34:43;10.23;;;8.45;;
49578;SDS011;35483;50.828;3.228;2022-11-11T13:37:24;10.90;;;9.60;;
49578;SDS011;35483;50.828;3.228;2022-11-11T13:40:05;9.68;;;8.70;;
49578;SDS011;35483;50.828;3.228;2022-11-11T13:42:37;13.48;;;9.95;;
49578;SDS011;35483;50.828;3.228;2022-11-11T13:45:06;9.18;;;7.85;;
49578;SDS011;35483;50.828;3.228;2022-11-11T13:47:43;7.95;;;6.95;;
49578;SDS011;35483;50.828;3.228;2022-11-11T13:50:20;12.82;;;11.63;;
49578;SDS011;35483;50.828;3.228;2022-11-11T13:52:58;8.55;;;6.82;;
49578;SDS011;35483;50.828;3.228;2022-11-11T13:55:31;8.18;;;7.32;;
49578;SDS011;35483;50.828;3.228;2022-11-11T13:58:02;7.47;;;6.60;;
49578;SDS011;35483;50.828;3.228;2022-11-11T14:00:35;6.63;;;6.03;;
49578;SDS011;35483;50.828;3.228;2022-11-11T14:05:44;7.60;;;5.60;;
49578;SDS011;35483;50.828;3.228;2022-11-11T14:08:40;5.97;;;5.32;;
49578;SDS011;35483;50.828;3.228;2022-11-11T14:13:52;6.28;;;5.68;;
49578;SDS011;35483;50.828;3.228;2022-11-11T14:21:47;7.13;;;6.35;;
49578;SDS011;35483;50.828;3.228;2022-11-11T14:27:04;5.43;;;4.93;;
49578;SDS011;35483;50.828;3.228;2022-11-11T14:29:54;5.70;;;5.20;;
49578;SDS011;35483;50.828;3.228;2022-11-11T14:37:56;6.25;;;5.65;;
49578;SDS011;35483;50.828;3.228;2022-11-11T14:46:05;5.47;;;4.97;;
49578;SDS011;35483;50.828;3.228;2022-11-11T14:54:02;6.85;;;6.00;;
49578;SDS011;35483;50.828;3.228;2022-11-11T14:56:30;6.90;;;5.10;;
49578;SDS011;35483;50.828;3.228;2022-11-11T14:58:58;8.98;;;6.00;;
49578;SDS011;35483;50.828;3.228;2022-11-11T15:03:59;8.73;;;7.82;;
49578;SDS011;35483;50.828;3.228;2022-11-11T15:06:35;8.38;;;6.63;;
49578;SDS011;35483;50.828;3.228;2022-11-11T15:09:18;7.38;;;5.95;;
49578;SDS011;35483;50.828;3.228;2022-11-11T15:14:58;8.30;;;6.30;;
49578;SDS011;35483;50.828;3.228;2022-11-11T15:20:56;7.97;;;5.93;;
49578;SDS011;35483;50.828;3.228;2022-11-11T15:23:41;8.00;;;6.65;;
49578;SDS011;35483;50.828;3.228;2022-11-11T15:26:35;7.80;;;6.43;;
49578;SDS011;35483;50.828;3.228;2022-11-11T15:34:39;7.15;;;6.25;;
49578;SDS011;35483;50.828;3.228;2022-11-11T15:37:16;9.60;;;6.40;;
49578;SDS011;35483;50.828;3.228;2022-11-11T15:39:48;8.93;;;6.75;;
49578;SDS011;35483;50.828;3.228;2022-11-11T15:45:02;7.70;;;6.40;;
49578;SDS011;35483;50.828;3.228;2022-11-11T15:47:46;7.57;;;5.95;;
49578;SDS011;35483;50.828;3.228;2022-11-11T15:52:52;13.52;;;12.13;;
49578;SDS011;35483;50.828;3.228;2022-11-11T15:55:21;7.25;;;6.55;;
49578;SDS011;35483;50.828;3.228;2022-11-11T15:57:49;10.00;;;7.55;;
49578;SDS011;35483;50.828;3.228;2022-11-11T16:00:23;9.10;;;7.35;;
49578;SDS011;35483;50.828;3.228;2022-11-11T16:02:53;9.82;;;7.25;;
49578;SDS011;35483;50.828;3.228;2022-11-11T16:05:24;8.57;;;7.63;;
49578;SDS011;35483;50.828;3.228;2022-11-11T16:07:52;10.90;;;8.60;;
49578;SDS011;35483;50.828;3.228;2022-11-11T16:15:55;9.60;;;8.52;;
49578;SDS011;35483;50.828;3.228;2022-11-11T16:18:29;9.93;;;8.63;;
49578;SDS011;35483;50.828;3.228;2022-11-11T16:21:02;9.32;;;8.00;;
49578;SDS011;35483;50.828;3.228;2022-11-11T16:23:36;10.43;;;8.32;;
49578;SDS011;35483;50.828;3.228;2022-11-11T16:26:03;10.30;;;8.60;;
49578;SDS011;35483;50.828;3.228;2022-11-11T16:28:36;11.65;;;9.50;;
49578;SDS011;35483;50.828;3.228;2022-11-11T16:31:29;13.48;;;10.10;;
49578;SDS011;35483;50.828;3.228;2022-11-11T16:37:08;12.25;;;10.85;;
49578;SDS011;35483;50.828;3.228;2022-11-11T16:39:36;18.85;;;14.30;;
49578;SDS011;35483;50.828;3.228;2022-11-11T16:42:02;16.63;;;14.23;;
49578;SDS011;35483;50.828;3.228;2022-11-11T16:44:39;17.73;;;13.10;;
49578;SDS011;35483;50.828;3.228;2022-11-11T16:52:26;14.32;;;12.82;;
49578;SDS011;35483;50.828;3.228;2022-11-11T16:54:54;19.67;;;15.60;;
49578;SDS011;35483;50.828;3.228;2022-11-11T16:57:27;16.23;;;14.52;;
49578;SDS011;35483;50.828;3.228;2022-11-11T16:59:59;18.38;;;16.42;;
49578;SDS011;35483;50.828;3.228;2022-11-11T17:02:28;18.10;;;15.45;;
49578;SDS011;35483;50.828;3.228;2022-11-11T17:04:55;16.42;;;14.13;;
49578;SDS011;35483;50.828;3.228;2022-11-11T17:07:30;15.18;;;13.48;;
49578;SDS011;35483;50.828;3.228;2022-11-11T17:13:02;23.13;;;13.07;;
49578;SDS011;35483;50.828;3.228;2022-11-11T17:15:31;14.40;;;12.75;;
49578;SDS011;35483;50.828;3.228;2022-11-11T17:17:58;14.57;;;13.07;;
49578;SDS011;35483;50.828;3.228;2022-11-11T17:20:25;17.52;;;15.75;;
49578;SDS011;35483;50.828;3.228;2022-11-11T17:22:55;13.38;;;12.07;;
49578;SDS011;35483;50.828;3.228;2022-11-11T17:25:21;10.60;;;9.25;;
49578;SDS011;35483;50.828;3.228;2022-11-11T17:27:47;11.77;;;9.23;;
49578;SDS011;35483;50.828;3.228;2022-11-11T17:30:13;20.88;;;15.45;;